createdAt,value
2023-05-15T00:01:35.865Z,4.20
2023-05-15T00:04:02.335Z,3.70
2023-05-15T00:06:28.765Z,4.23
2023-05-15T00:08:55.425Z,5.27
2023-05-15T00:11:22.781Z,5.67
2023-05-15T00:13:50.010Z,4.90
2023-05-15T00:16:16.478Z,4.43
2023-05-15T00:18:42.660Z,4.73
2023-05-15T00:21:08.934Z,4.80
2023-05-15T00:23:35.113Z,5.07
2023-05-15T00:26:01.270Z,5.40
2023-05-15T00:28:27.650Z,4.87
2023-05-15T00:30:55.625Z,5.57
2023-05-15T00:33:21.888Z,3.37
2023-05-15T00:35:48.062Z,3.80
2023-05-15T00:38:14.191Z,4.90
2023-05-15T00:40:42.702Z,3.63
2023-05-15T00:43:10.674Z,5.10
2023-05-15T00:45:40.613Z,4.63
2023-05-15T00:48:11.984Z,5.63
2023-05-15T00:50:40.960Z,4.77
2023-05-15T00:53:07.851Z,4.20
2023-05-15T00:55:36.014Z,3.57
2023-05-15T00:58:04.445Z,6.37
2023-05-15T01:00:33.092Z,5.80
2023-05-15T01:03:01.121Z,4.13
2023-05-15T01:05:28.193Z,3.53
2023-05-15T01:08:11.821Z,3.80
2023-05-15T01:10:42.338Z,4.80
2023-05-15T01:13:10.669Z,6.23
2023-05-15T01:15:37.469Z,6.63
2023-05-15T01:18:05.279Z,5.67
2023-05-15T01:20:46.865Z,5.43
2023-05-15T01:23:49.377Z,5.87
2023-05-15T01:26:48.231Z,19.17
2023-05-15T01:29:34.658Z,4.60
2023-05-15T01:32:19.403Z,10.50
2023-05-15T01:35:05.569Z,8.50
2023-05-15T01:37:36.101Z,8.73
2023-05-15T01:40:06.742Z,5.17
2023-05-15T01:42:41.697Z,4.37
2023-05-15T01:45:11.314Z,7.00
2023-05-15T01:47:46.437Z,4.70
2023-05-15T01:50:16.303Z,6.30
2023-05-15T01:52:55.566Z,4.63
2023-05-15T01:55:24.933Z,6.07
2023-05-15T01:57:52.365Z,5.00
2023-05-15T02:00:19.303Z,5.13
2023-05-15T02:02:48.578Z,4.87
2023-05-15T02:05:18.649Z,4.70
2023-05-15T02:07:47.950Z,5.63
2023-05-15T02:10:17.580Z,5.13
2023-05-15T02:12:47.002Z,9.43
2023-05-15T02:15:16.566Z,5.37
2023-05-15T02:17:46.182Z,5.70
2023-05-15T02:20:13.778Z,6.10
2023-05-15T02:22:40.195Z,18.27
2023-05-15T02:25:06.616Z,7.00
2023-05-15T02:27:48.208Z,5.23
2023-05-15T02:30:31.131Z,4.43
2023-05-15T02:33:25.223Z,5.00
2023-05-15T02:36:02.313Z,5.90
2023-05-15T02:38:35.808Z,19.13
2023-05-15T02:41:05.084Z,9.43
2023-05-15T02:43:33.077Z,21.67
2023-05-15T02:46:00.202Z,19.87
2023-05-15T02:48:26.710Z,6.63
2023-05-15T02:50:53.633Z,16.83
2023-05-15T02:53:19.789Z,34.10
2023-05-15T02:55:46.002Z,18.87
2023-05-15T02:58:12.444Z,4.87
2023-05-15T03:00:38.623Z,11.60
2023-05-15T03:03:04.906Z,22.93
2023-05-15T03:05:31.106Z,4.50
2023-05-15T03:07:58.357Z,16.47
2023-05-15T03:10:24.494Z,5.40
2023-05-15T03:12:50.650Z,9.53
2023-05-15T03:15:17.507Z,6.63
2023-05-15T03:17:44.008Z,22.27
2023-05-15T03:20:10.473Z,16.07
2023-05-15T03:22:36.628Z,5.77
2023-05-15T03:25:02.915Z,7.57
2023-05-15T03:27:29.281Z,10.70
2023-05-15T03:29:55.586Z,13.10
2023-05-15T03:32:21.882Z,21.57
2023-05-15T03:34:48.392Z,6.77
2023-05-15T03:37:14.627Z,9.60
2023-05-15T03:39:41.031Z,5.03
2023-05-15T03:42:07.276Z,11.03
2023-05-15T03:44:33.735Z,13.00
2023-05-15T03:47:00.236Z,5.90
2023-05-15T03:49:26.469Z,23.40
2023-05-15T03:51:53.021Z,5.57
2023-05-15T03:54:19.226Z,4.20
2023-05-15T03:56:45.556Z,8.60
2023-05-15T03:59:11.697Z,5.97
2023-05-15T04:01:47.527Z,5.20
2023-05-15T04:04:23.979Z,4.93
2023-05-15T04:06:50.982Z,7.70
2023-05-15T04:09:17.099Z,5.13
2023-05-15T04:11:46.370Z,5.37
2023-05-15T04:14:12.852Z,5.10
2023-05-15T04:16:39.026Z,5.17
2023-05-15T04:19:05.816Z,7.97
2023-05-15T04:21:31.966Z,20.37
2023-05-15T04:23:58.351Z,18.90
2023-05-15T04:26:24.803Z,15.97
2023-05-15T04:29:02.927Z,33.57
2023-05-15T04:31:30.830Z,40.73
2023-05-15T04:33:57.243Z,37.97
2023-05-15T04:36:23.406Z,57.90
2023-05-15T04:38:49.611Z,21.53
2023-05-15T04:41:16.043Z,23.13
2023-05-15T04:43:42.534Z,31.83
2023-05-15T04:46:08.717Z,24.67
2023-05-15T04:48:34.943Z,7.80
2023-05-15T04:51:01.067Z,6.27
2023-05-15T04:53:27.232Z,4.97
2023-05-15T04:55:53.599Z,5.47
2023-05-15T04:58:19.766Z,5.57
2023-05-15T05:00:45.926Z,5.53
2023-05-15T05:03:12.232Z,5.63
2023-05-15T05:05:38.425Z,6.17
2023-05-15T05:08:04.622Z,6.27
2023-05-15T05:10:30.835Z,6.17
2023-05-15T05:12:56.983Z,5.27
2023-05-15T05:15:23.315Z,20.97
2023-05-15T05:17:50.081Z,5.90
2023-05-15T05:20:16.630Z,5.20
2023-05-15T05:22:42.813Z,7.23
2023-05-15T05:25:09.357Z,19.50
2023-05-15T05:27:38.195Z,5.17
2023-05-15T05:30:05.588Z,14.77
2023-05-15T05:32:31.759Z,4.77
2023-05-15T05:34:57.922Z,4.90
2023-05-15T05:37:24.046Z,5.87
2023-05-15T05:39:50.189Z,5.53
2023-05-15T05:42:16.398Z,5.30
2023-05-15T05:44:42.566Z,5.33
2023-05-15T05:47:11.910Z,5.17
2023-05-15T05:49:39.150Z,5.57
2023-05-15T05:52:07.313Z,5.67
2023-05-15T05:54:33.643Z,5.97
2023-05-15T05:57:00.221Z,6.50
2023-05-15T05:59:26.391Z,6.23
2023-05-15T06:01:52.707Z,6.80
2023-05-15T06:04:18.955Z,9.60
2023-05-15T06:06:45.474Z,9.03
2023-05-15T06:09:11.639Z,13.17
2023-05-15T06:11:37.801Z,17.20
2023-05-15T06:14:03.941Z,17.43
2023-05-15T06:16:30.476Z,18.87
2023-05-15T06:18:56.735Z,17.53
2023-05-15T06:21:22.837Z,19.17
2023-05-15T06:23:48.977Z,23.37
2023-05-15T06:26:15.177Z,23.03
2023-05-15T06:28:41.328Z,21.77
2023-05-15T06:31:07.559Z,23.97
2023-05-15T06:33:33.995Z,23.13
2023-05-15T06:36:00.246Z,21.73
2023-05-15T06:38:26.363Z,24.83
2023-05-15T06:40:52.496Z,25.57
2023-05-15T06:43:18.650Z,33.47
2023-05-15T06:45:45.430Z,29.50
2023-05-15T06:48:14.314Z,34.03
2023-05-15T06:50:40.532Z,28.27
2023-05-15T06:53:06.717Z,31.93
2023-05-15T06:55:33.906Z,32.63
2023-05-15T06:58:00.370Z,43.07
2023-05-15T07:00:27.236Z,43.23
2023-05-15T07:02:53.507Z,38.40
2023-05-15T07:05:21.107Z,35.73
2023-05-15T07:07:47.399Z,39.50
2023-05-15T07:10:13.522Z,42.27
2023-05-15T07:12:39.730Z,42.50
2023-05-15T07:15:06.656Z,42.17
2023-05-15T07:17:33.436Z,45.77
2023-05-15T07:19:59.695Z,40.43
2023-05-15T07:22:28.296Z,47.73
2023-05-15T07:24:54.458Z,43.67
2023-05-15T07:27:20.613Z,45.00
2023-05-15T07:29:46.857Z,42.73
2023-05-15T07:32:13.283Z,48.17
2023-05-15T07:34:39.429Z,46.27
2023-05-15T07:37:05.595Z,51.50
2023-05-15T07:39:31.773Z,50.37
2023-05-15T07:41:58.174Z,49.77
2023-05-15T07:44:24.539Z,44.73
2023-05-15T07:46:51.075Z,49.03
2023-05-15T07:49:17.231Z,46.00
2023-05-15T07:51:43.639Z,50.17
2023-05-15T07:54:09.797Z,45.57
2023-05-15T07:56:36.181Z,49.07
2023-05-15T07:59:02.779Z,52.70
2023-05-15T08:01:30.774Z,51.83
2023-05-15T08:03:58.953Z,51.57
2023-05-15T08:06:25.385Z,45.67
2023-05-15T08:08:51.783Z,50.80
2023-05-15T08:11:18.405Z,49.77
2023-05-15T08:13:44.767Z,45.23
2023-05-15T08:16:11.000Z,47.20
2023-05-15T08:18:37.326Z,49.10
2023-05-15T08:21:04.747Z,45.30
2023-05-15T08:23:31.003Z,44.97
2023-05-15T08:25:57.144Z,47.10
2023-05-15T08:28:23.321Z,52.57
2023-05-15T08:30:49.702Z,39.53
2023-05-15T08:33:16.150Z,45.67
2023-05-15T08:35:42.351Z,43.93
2023-05-15T08:38:09.003Z,39.13
2023-05-15T08:40:39.844Z,45.77
2023-05-15T08:43:15.189Z,40.23
2023-05-15T08:45:42.690Z,44.90
2023-05-15T08:48:13.853Z,45.33
2023-05-15T08:50:43.254Z,38.87
2023-05-15T08:53:12.924Z,42.00
2023-05-15T08:55:40.904Z,41.10
2023-05-15T08:58:08.183Z,43.60
2023-05-15T09:00:34.824Z,42.67
2023-05-15T09:03:01.648Z,40.83
2023-05-15T09:05:29.230Z,42.53
2023-05-15T09:07:58.952Z,41.87
2023-05-15T09:10:25.319Z,40.93
2023-05-15T09:12:52.685Z,42.80
2023-05-15T09:15:24.328Z,42.73
2023-05-15T09:17:51.520Z,45.33
2023-05-15T09:20:31.714Z,47.47
2023-05-15T09:22:59.962Z,47.63
2023-05-15T09:25:41.877Z,50.47
2023-05-15T09:28:31.037Z,49.53
2023-05-15T09:31:00.305Z,46.80
2023-05-15T09:33:37.083Z,48.00
2023-05-15T09:36:06.871Z,49.47
2023-05-15T09:38:38.776Z,46.07
2023-05-15T09:41:07.529Z,50.20
2023-05-15T09:43:39.350Z,48.10
2023-05-15T09:46:12.143Z,44.00
2023-05-15T09:48:38.893Z,49.00
2023-05-15T09:51:17.498Z,47.93
2023-05-15T09:53:50.781Z,49.63
2023-05-15T09:56:17.510Z,47.47
2023-05-15T09:58:58.420Z,49.03
2023-05-15T10:01:26.830Z,49.23
2023-05-15T10:04:05.699Z,46.93
2023-05-15T10:06:36.879Z,56.30
2023-05-15T10:09:04.045Z,48.30
2023-05-15T10:11:33.849Z,50.27
2023-05-15T10:14:01.832Z,49.27
2023-05-15T10:16:30.977Z,47.10
2023-05-15T10:18:58.221Z,49.20
2023-05-15T10:21:26.721Z,44.03
2023-05-15T10:23:56.047Z,45.13
2023-05-15T10:26:39.362Z,42.63
2023-05-15T10:29:09.080Z,43.00
2023-05-15T10:31:35.828Z,42.40
2023-05-15T10:34:04.585Z,42.37
2023-05-15T10:36:33.125Z,44.27
2023-05-15T10:39:01.249Z,41.73
2023-05-15T10:41:32.945Z,44.17
2023-05-15T10:44:00.680Z,39.93
2023-05-15T10:46:34.309Z,41.60
2023-05-15T10:49:00.961Z,39.53
2023-05-15T10:51:32.285Z,39.47
2023-05-15T10:54:02.847Z,37.87
2023-05-15T10:56:31.232Z,35.50
2023-05-15T10:59:08.011Z,37.30
2023-05-15T11:01:39.896Z,33.37
2023-05-15T11:04:21.993Z,37.10
2023-05-15T11:06:50.337Z,28.10
2023-05-15T11:09:27.364Z,28.70
2023-05-15T11:11:59.688Z,28.97
2023-05-15T11:14:32.008Z,27.97
2023-05-15T11:17:02.952Z,27.80
2023-05-15T11:19:31.615Z,25.75
2023-05-15T11:22:20.207Z,27.73
2023-05-15T11:25:04.781Z,22.75
2023-05-15T11:27:42.673Z,23.83
2023-05-15T11:30:21.542Z,24.98
2023-05-15T11:32:54.762Z,24.35
2023-05-15T11:35:28.507Z,26.02
2023-05-15T11:38:10.766Z,25.10
2023-05-15T11:41:02.627Z,26.67
2023-05-15T11:43:35.621Z,24.33
2023-05-15T11:46:09.864Z,27.55
2023-05-15T11:48:42.416Z,27.00
2023-05-15T11:51:24.173Z,23.58
2023-05-15T11:53:55.947Z,30.58
2023-05-15T11:56:27.367Z,26.15
2023-05-15T11:59:03.198Z,27.73
2023-05-15T12:01:43.390Z,26.42
2023-05-15T12:04:18.152Z,28.42
2023-05-15T12:06:49.124Z,27.08
2023-05-15T12:09:18.277Z,28.30
2023-05-15T12:11:52.371Z,26.00
2023-05-15T12:14:30.010Z,28.93
2023-05-15T12:17:04.121Z,28.48
2023-05-15T12:19:35.097Z,26.58
2023-05-15T12:22:05.771Z,24.53
2023-05-15T12:24:32.007Z,22.40
2023-05-15T12:26:58.628Z,23.50
2023-05-15T12:29:27.222Z,24.80
2023-05-15T12:31:54.327Z,20.00
2023-05-15T12:34:21.678Z,19.92
2023-05-15T12:36:47.994Z,16.70
2023-05-15T12:39:14.127Z,17.43
2023-05-15T12:41:40.305Z,14.57
2023-05-15T12:44:06.474Z,16.30
2023-05-15T12:46:32.765Z,17.25
2023-05-15T12:48:59.981Z,14.05
2023-05-15T12:51:28.960Z,15.98
2023-05-15T12:53:58.920Z,15.00
2023-05-15T12:56:25.833Z,17.73
2023-05-15T12:58:53.764Z,13.43
2023-05-15T13:01:21.468Z,12.93
2023-05-15T13:03:48.111Z,13.25
2023-05-15T13:06:15.849Z,9.80
2023-05-15T13:08:42.371Z,8.95
2023-05-15T13:11:15.853Z,10.90
2023-05-15T13:13:45.418Z,8.97
2023-05-15T13:16:25.249Z,9.63
2023-05-15T13:18:52.377Z,10.50
2023-05-15T13:21:20.237Z,7.97
2023-05-15T13:23:46.818Z,12.83
2023-05-15T13:26:13.120Z,9.20
2023-05-15T13:28:39.884Z,9.63
2023-05-15T13:31:06.140Z,11.23
2023-05-15T13:33:33.265Z,10.43
2023-05-15T13:38:44.203Z,10.67
2023-05-15T13:41:10.361Z,11.37
2023-05-15T13:43:36.530Z,13.60
2023-05-15T13:46:03.845Z,12.67
2023-05-15T13:48:30.285Z,11.90
2023-05-15T13:50:56.430Z,12.10
2023-05-15T13:53:22.765Z,12.53
2023-05-15T13:55:49.239Z,17.33
2023-05-15T13:58:15.846Z,14.03
2023-05-15T14:00:43.584Z,12.17
2023-05-15T14:03:14.942Z,12.00
2023-05-15T14:05:41.515Z,13.33
2023-05-15T14:08:07.669Z,11.33
2023-05-15T14:10:36.626Z,11.17
2023-05-15T14:13:02.854Z,11.60
2023-05-15T14:15:29.038Z,13.97
2023-05-15T14:17:55.297Z,9.77
2023-05-15T14:20:21.905Z,10.20
2023-05-15T14:22:48.344Z,9.13
2023-05-15T14:25:14.518Z,9.47
2023-05-15T14:27:40.947Z,9.30
2023-05-15T14:30:07.902Z,9.20
2023-05-15T14:32:34.192Z,8.73
2023-05-15T14:35:00.737Z,9.30
2023-05-15T14:37:27.574Z,11.23
2023-05-15T14:39:53.775Z,8.90
2023-05-15T14:42:21.374Z,10.80
2023-05-15T14:44:47.872Z,9.70
2023-05-15T14:47:14.327Z,9.27
2023-05-15T14:49:40.677Z,8.67
2023-05-15T14:52:10.414Z,8.13
2023-05-15T14:54:38.261Z,7.77
2023-05-15T14:57:04.839Z,8.10
2023-05-15T14:59:31.114Z,8.87
2023-05-15T15:01:57.633Z,8.67
2023-05-15T15:04:28.141Z,8.27
2023-05-15T15:06:57.219Z,7.17
2023-05-15T15:09:25.599Z,9.23
2023-05-15T15:11:53.288Z,7.27
2023-05-15T15:14:19.758Z,9.90
2023-05-15T15:16:46.004Z,7.60
2023-05-15T15:19:13.604Z,7.50
2023-05-15T15:21:39.899Z,7.93
2023-05-15T15:24:06.406Z,7.53
2023-05-15T15:26:32.629Z,6.17
2023-05-15T15:29:00.122Z,7.53
2023-05-15T15:31:30.802Z,6.43
2023-05-15T15:33:57.715Z,6.67
2023-05-15T15:36:24.687Z,6.90
2023-05-15T15:38:50.966Z,7.70
2023-05-15T15:41:17.482Z,7.43
2023-05-15T15:43:43.780Z,7.23
2023-05-15T15:46:09.990Z,6.57
2023-05-15T15:48:36.239Z,6.70
2023-05-15T15:51:02.672Z,6.80
2023-05-15T15:53:28.906Z,6.67
2023-05-15T15:55:55.055Z,7.77
2023-05-15T15:58:21.245Z,7.97
2023-05-15T16:00:47.535Z,8.50
2023-05-15T16:03:13.806Z,7.27
2023-05-15T16:05:40.008Z,9.63
2023-05-15T16:08:06.565Z,7.00
2023-05-15T16:10:32.941Z,8.77
2023-05-15T16:12:59.401Z,6.70
2023-05-15T16:15:25.785Z,7.10
2023-05-15T16:17:53.018Z,7.47
2023-05-15T16:20:19.810Z,8.40
2023-05-15T16:22:46.196Z,9.53
2023-05-15T16:25:12.428Z,11.87
2023-05-15T16:27:38.596Z,13.70
2023-05-15T16:30:05.391Z,12.17
2023-05-15T16:32:32.998Z,13.60
2023-05-15T16:34:59.162Z,15.77
2023-05-15T16:37:25.562Z,12.40
2023-05-15T16:39:51.830Z,11.30
2023-05-15T16:42:18.012Z,12.80
2023-05-15T16:44:45.680Z,12.40
2023-05-15T16:47:11.918Z,10.63
2023-05-15T16:49:38.291Z,10.93
2023-05-15T16:52:04.854Z,10.20
2023-05-15T16:54:31.315Z,10.70
2023-05-15T16:56:57.455Z,10.33
2023-05-15T16:59:23.610Z,11.80
2023-05-15T17:01:50.377Z,13.90
2023-05-15T17:04:16.566Z,13.87
2023-05-15T17:06:42.755Z,17.30
2023-05-15T17:09:08.898Z,13.80
2023-05-15T17:11:35.084Z,16.07
2023-05-15T17:14:01.507Z,13.67
2023-05-15T17:16:27.785Z,14.13
2023-05-15T17:18:54.229Z,10.13
2023-05-15T17:21:20.400Z,9.57
2023-05-15T17:23:46.543Z,9.60
2023-05-15T17:26:12.681Z,12.57
2023-05-15T17:28:39.206Z,9.03
2023-05-15T17:31:09.770Z,9.57
2023-05-15T17:33:35.902Z,11.37
2023-05-15T17:36:02.235Z,11.73
2023-05-15T17:38:28.644Z,10.53
2023-05-15T17:40:55.013Z,11.00
2023-05-15T17:43:21.118Z,11.63
2023-05-15T17:45:47.285Z,12.70
2023-05-15T17:48:13.480Z,11.73
2023-05-15T17:50:40.901Z,11.03
2023-05-15T17:53:07.430Z,11.40
2023-05-15T17:55:33.562Z,11.27
2023-05-15T17:57:59.969Z,13.17
2023-05-15T18:00:26.868Z,12.07
2023-05-15T18:02:53.237Z,11.47
2023-05-15T18:05:19.504Z,12.03
2023-05-15T18:07:47.356Z,12.37
2023-05-15T18:10:13.985Z,12.63
2023-05-15T18:12:40.324Z,10.87
2023-05-15T18:15:07.272Z,12.20
2023-05-15T18:17:33.804Z,12.73
2023-05-15T18:20:00.964Z,18.07
2023-05-15T18:22:27.121Z,17.60
2023-05-15T18:24:53.260Z,15.20
2023-05-15T18:27:19.434Z,16.43
2023-05-15T18:29:45.739Z,18.13
2023-05-15T18:32:11.935Z,20.53
2023-05-15T18:34:38.078Z,22.23
2023-05-15T18:37:04.781Z,18.93
2023-05-15T18:39:30.891Z,23.43
2023-05-15T18:41:57.032Z,22.13
2023-05-15T18:44:23.415Z,20.20
2023-05-15T18:46:49.622Z,18.13
2023-05-15T18:49:17.231Z,18.57
2023-05-15T18:51:43.784Z,18.27
2023-05-15T18:54:10.209Z,17.07
2023-05-15T18:56:36.397Z,15.40
2023-05-15T18:59:02.790Z,17.00
2023-05-15T19:01:29.368Z,15.37
2023-05-15T19:03:55.540Z,15.00
2023-05-15T19:06:21.698Z,14.00
2023-05-15T19:08:47.913Z,14.17
2023-05-15T19:11:15.130Z,14.47
2023-05-15T19:13:41.261Z,14.23
2023-05-15T19:16:08.495Z,14.77
2023-05-15T19:18:34.865Z,14.97
2023-05-15T19:21:01.096Z,14.07
2023-05-15T19:23:28.304Z,11.57
2023-05-15T19:25:54.476Z,12.60
2023-05-15T19:28:20.706Z,16.47
2023-05-15T19:30:46.924Z,13.50
2023-05-15T19:33:15.592Z,12.87
2023-05-15T19:35:41.864Z,14.20
2023-05-15T19:38:08.012Z,11.50
2023-05-15T19:40:35.214Z,12.90
2023-05-15T19:43:01.558Z,17.07
2023-05-15T19:45:29.916Z,11.87
2023-05-15T19:47:56.385Z,13.20
2023-05-15T19:50:22.531Z,13.60
2023-05-15T19:52:48.729Z,18.27
2023-05-15T19:55:14.989Z,15.70
2023-05-15T19:57:44.253Z,13.03
2023-05-15T20:00:11.704Z,20.70
2023-05-15T20:02:37.941Z,16.20
2023-05-15T20:05:04.810Z,15.90
2023-05-15T20:07:31.000Z,19.90
2023-05-15T20:09:57.169Z,17.00
2023-05-15T20:12:23.367Z,18.13
2023-05-15T20:14:49.775Z,19.40
2023-05-15T20:17:16.818Z,19.30
2023-05-15T20:19:43.085Z,17.70
2023-05-15T20:22:09.228Z,13.47
2023-05-15T20:24:35.376Z,14.73
2023-05-15T20:27:03.258Z,15.73
2023-05-15T20:29:29.463Z,13.57
2023-05-15T20:31:56.078Z,15.20
2023-05-15T20:34:22.566Z,11.63
2023-05-15T20:36:52.206Z,14.53
2023-05-15T20:39:19.471Z,13.60
2023-05-15T20:41:45.904Z,15.27
2023-05-15T20:44:12.117Z,12.47
2023-05-15T20:46:40.193Z,15.93
2023-05-15T20:49:06.416Z,14.47
2023-05-15T20:51:32.576Z,13.13
2023-05-15T20:53:58.714Z,17.50
2023-05-15T20:56:25.365Z,16.83
2023-05-15T20:58:52.512Z,15.30
2023-05-15T21:01:18.879Z,15.50
2023-05-15T21:03:45.056Z,18.37
2023-05-15T21:06:13.449Z,14.80
2023-05-15T21:08:39.693Z,16.57
2023-05-15T21:11:05.819Z,16.80
2023-05-15T21:13:31.980Z,16.83
2023-05-15T21:15:58.113Z,17.23
2023-05-15T21:18:24.540Z,16.53
2023-05-15T21:20:51.158Z,17.37
2023-05-15T21:23:20.608Z,16.03
2023-05-15T21:25:47.247Z,16.17
2023-05-15T21:28:13.447Z,14.93
2023-05-15T21:30:39.779Z,14.87
2023-05-15T21:33:06.300Z,15.03
2023-05-15T21:35:32.514Z,14.80
2023-05-15T21:37:59.280Z,18.50
2023-05-15T21:40:25.806Z,16.70
2023-05-15T21:42:52.103Z,15.87
2023-05-15T21:45:18.915Z,14.30
2023-05-15T21:47:45.060Z,15.10
2023-05-15T21:50:11.210Z,13.40
2023-05-15T21:52:37.319Z,13.47
2023-05-15T21:55:04.097Z,13.87
2023-05-15T21:57:30.251Z,14.87
2023-05-15T21:59:56.391Z,16.37
2023-05-15T22:02:22.895Z,18.50
2023-05-15T22:04:49.403Z,14.13
2023-05-15T22:07:15.766Z,15.13
2023-05-15T22:09:44.156Z,15.57
2023-05-15T22:12:10.671Z,14.03
2023-05-15T22:14:39.539Z,15.90
2023-05-15T22:17:08.276Z,13.13
2023-05-15T22:19:34.443Z,13.87
2023-05-15T22:22:02.891Z,14.23
2023-05-15T22:24:29.247Z,13.67
2023-05-15T22:26:55.377Z,14.23
2023-05-15T22:29:21.774Z,15.60
2023-05-15T22:31:48.183Z,13.40
2023-05-15T22:34:14.372Z,13.97
2023-05-15T22:36:41.161Z,15.03
2023-05-15T22:39:07.438Z,13.67
2023-05-15T22:41:33.852Z,14.83
2023-05-15T22:44:05.645Z,13.03
2023-05-15T22:46:31.995Z,13.50
2023-05-15T22:49:00.764Z,14.40
2023-05-15T22:51:28.678Z,13.33
2023-05-15T22:53:54.815Z,15.00
2023-05-15T22:56:21.022Z,14.70
2023-05-15T22:58:47.482Z,13.10
2023-05-15T23:01:13.936Z,16.23
2023-05-15T23:03:40.151Z,16.57
2023-05-15T23:06:06.462Z,15.27
2023-05-15T23:08:32.593Z,14.97
2023-05-15T23:10:58.723Z,14.47
2023-05-15T23:13:24.868Z,13.67
2023-05-15T23:15:51.295Z,19.40
2023-05-15T23:18:17.600Z,14.57
2023-05-15T23:20:43.993Z,18.63
2023-05-15T23:23:10.282Z,13.80
2023-05-15T23:25:37.670Z,14.13
2023-05-15T23:28:03.815Z,16.00
2023-05-15T23:30:29.974Z,13.53
2023-05-15T23:32:56.320Z,14.80
2023-05-15T23:35:22.669Z,14.53
2023-05-15T23:37:48.807Z,14.57
2023-05-15T23:40:15.267Z,15.17
2023-05-15T23:42:41.385Z,14.67
2023-05-15T23:45:08.744Z,14.50
2023-05-15T23:47:34.925Z,15.80
2023-05-15T23:50:03.366Z,15.50
2023-05-15T23:52:29.526Z,18.97
2023-05-15T23:54:55.652Z,15.43
2023-05-15T23:57:22.073Z,18.57
2023-05-15T23:59:48.252Z,16.30
